sensor_id;sensor_type;location;lat;lon;timestamp;pressure;altitude;pressure_sealevel;temperature;humidity
59289;BME280;45056;47.602;9.886;2022-07-21T00:00:39;93412.06;;;22.49;60.92
59289;BME280;45056;47.602;9.886;2022-07-21T00:03:07;93423.63;;;22.47;61.09
59289;BME280;45056;47.602;9.886;2022-07-21T00:05:35;93431.69;;;22.45;61.06
59289;BME280;45056;47.602;9.886;2022-07-21T00:08:04;93432.94;;;22.44;61.02
59289;BME280;45056;47.602;9.886;2022-07-21T00:10:32;93432.44;;;22.46;61.37
59289;BME280;45056;47.602;9.886;2022-07-21T00:13:00;93435.22;;;22.46;61.66
59289;BME280;45056;47.602;9.886;2022-07-21T00:15:30;93432.44;;;22.46;61.81
59289;BME280;45056;47.602;9.886;2022-07-21T00:17:59;93430.44;;;22.46;62.02
59289;BME280;45056;47.602;9.886;2022-07-21T00:20:27;93436.75;;;22.47;62.13
59289;BME280;45056;47.602;9.886;2022-07-21T00:22:57;93444.31;;;22.46;62.11
59289;BME280;45056;47.602;9.886;2022-07-21T00:25:26;93442.00;;;22.45;62.38
59289;BME280;45056;47.602;9.886;2022-07-21T00:27:54;93448.81;;;22.44;62.62
59289;BME280;45056;47.602;9.886;2022-07-21T00:30:22;93442.53;;;22.43;62.56
59289;BME280;45056;47.602;9.886;2022-07-21T00:32:51;93435.47;;;22.42;62.42
59289;BME280;45056;47.602;9.886;2022-07-21T00:35:19;93443.78;;;22.42;62.35
59289;BME280;45056;47.602;9.886;2022-07-21T00:37:47;93445.78;;;22.42;62.30
59289;BME280;45056;47.602;9.886;2022-07-21T00:40:15;93452.59;;;22.41;62.37
59289;BME280;45056;47.602;9.886;2022-07-21T00:42:43;93445.78;;;22.42;62.18
59289;BME280;45056;47.602;9.886;2022-07-21T00:45:12;93456.38;;;22.43;62.02
59289;BME280;45056;47.602;9.886;2022-07-21T00:47:41;93458.41;;;22.43;62.15
59289;BME280;45056;47.602;9.886;2022-07-21T00:50:14;93443.03;;;22.42;62.29
59289;BME280;45056;47.602;9.886;2022-07-21T00:52:44;93452.59;;;22.41;62.24
59289;BME280;45056;47.602;9.886;2022-07-21T00:55:15;93456.63;;;22.40;62.17
59289;BME280;45056;47.602;9.886;2022-07-21T00:57:48;93460.66;;;22.39;62.37
59289;BME280;45056;47.602;9.886;2022-07-21T01:00:22;93455.91;;;22.39;61.99
59289;BME280;45056;47.602;9.886;2022-07-21T01:02:53;93442.78;;;22.40;62.25
59289;BME280;45056;47.602;9.886;2022-07-21T01:05:24;93443.28;;;22.44;62.22
59289;BME280;45056;47.602;9.886;2022-07-21T01:07:54;93452.13;;;22.48;62.36
59289;BME280;45056;47.602;9.886;2022-07-21T01:10:25;93456.16;;;22.47;62.52
59289;BME280;45056;47.602;9.886;2022-07-21T01:12:53;93449.09;;;22.46;62.76
59289;BME280;45056;47.602;9.886;2022-07-21T01:15:22;93451.59;;;22.44;62.94
59289;BME280;45056;47.602;9.886;2022-07-21T01:17:51;93448.31;;;22.45;63.11
59289;BME280;45056;47.602;9.886;2022-07-21T01:20:21;93449.09;;;22.46;63.11
59289;BME280;45056;47.602;9.886;2022-07-21T01:22:55;93441.53;;;22.46;63.21
59289;BME280;45056;47.602;9.886;2022-07-21T01:25:23;93443.53;;;22.46;63.23
59289;BME280;45056;47.602;9.886;2022-07-21T01:27:51;93442.00;;;22.45;63.55
59289;BME280;45056;47.602;9.886;2022-07-21T01:30:20;93449.09;;;22.46;63.58
59289;BME280;45056;47.602;9.886;2022-07-21T01:32:48;93449.84;;;22.46;63.84
59289;BME280;45056;47.602;9.886;2022-07-21T01:35:17;93454.63;;;22.46;63.97
59289;BME280;45056;47.602;9.886;2022-07-21T01:37:47;93459.41;;;22.45;64.14
59289;BME280;45056;47.602;9.886;2022-07-21T01:40:18;93455.41;;;22.46;64.01
59289;BME280;45056;47.602;9.886;2022-07-21T01:43:04;93466.00;;;22.48;64.38
59289;BME280;45056;47.602;9.886;2022-07-21T01:45:32;93468.75;;;22.48;64.25
59289;BME280;45056;47.602;9.886;2022-07-21T01:48:01;93463.22;;;22.48;64.50
59289;BME280;45056;47.602;9.886;2022-07-21T01:50:29;93463.72;;;22.46;64.73
59289;BME280;45056;47.602;9.886;2022-07-21T01:52:58;93464.94;;;22.45;64.65
59289;BME280;45056;47.602;9.886;2022-07-21T01:55:27;93466.94;;;22.45;64.70
59289;BME280;45056;47.602;9.886;2022-07-21T01:57:57;93462.44;;;22.42;64.70
59289;BME280;45056;47.602;9.886;2022-07-21T02:00:25;93456.63;;;22.40;64.87
59289;BME280;45056;47.602;9.886;2022-07-21T02:02:52;93464.22;;;22.39;64.86
59289;BME280;45056;47.602;9.886;2022-07-21T02:05:21;93459.94;;;22.38;64.79
59289;BME280;45056;47.602;9.886;2022-07-21T02:07:50;93470.25;;;22.38;64.64
59289;BME280;45056;47.602;9.886;2022-07-21T02:10:18;93464.72;;;22.38;64.67
59289;BME280;45056;47.602;9.886;2022-07-21T02:12:47;93470.25;;;22.38;64.62
59289;BME280;45056;47.602;9.886;2022-07-21T02:15:15;93475.06;;;22.37;64.71
59289;BME280;45056;47.602;9.886;2022-07-21T02:17:43;93477.31;;;22.39;64.84
59289;BME280;45056;47.602;9.886;2022-07-21T02:20:11;93466.97;;;22.39;64.72
59289;BME280;45056;47.602;9.886;2022-07-21T02:22:39;93466.22;;;22.39;65.06
59289;BME280;45056;47.602;9.886;2022-07-21T02:25:11;93457.66;;;22.37;65.00
59289;BME280;45056;47.602;9.886;2022-07-21T02:27:40;93463.47;;;22.33;64.88
59289;BME280;45056;47.602;9.886;2022-07-21T02:30:11;93458.16;;;22.29;64.50
59289;BME280;45056;47.602;9.886;2022-07-21T02:32:40;93461.97;;;22.26;64.56
59289;BME280;45056;47.602;9.886;2022-07-21T02:35:09;93466.00;;;22.25;64.41
59289;BME280;45056;47.602;9.886;2022-07-21T02:37:37;93465.75;;;22.23;64.39
59289;BME280;45056;47.602;9.886;2022-07-21T02:40:06;93463.22;;;22.19;64.36
59289;BME280;45056;47.602;9.886;2022-07-21T02:42:35;93462.97;;;22.17;64.56
59289;BME280;45056;47.602;9.886;2022-07-21T02:45:05;93470.25;;;22.15;64.44
59289;BME280;45056;47.602;9.886;2022-07-21T02:47:49;93478.31;;;22.13;64.66
59289;BME280;45056;47.602;9.886;2022-07-21T02:50:20;93471.53;;;22.14;64.73
59289;BME280;45056;47.602;9.886;2022-07-21T02:52:50;93472.28;;;22.14;64.73
59289;BME280;45056;47.602;9.886;2022-07-21T02:55:23;93480.13;;;22.16;64.80
59289;BME280;45056;47.602;9.886;2022-07-21T02:58:03;93475.06;;;22.14;64.72
59289;BME280;45056;47.602;9.886;2022-07-21T03:00:32;93472.78;;;22.13;64.83
59289;BME280;45056;47.602;9.886;2022-07-21T03:03:03;93472.53;;;22.11;64.80
59289;BME280;45056;47.602;9.886;2022-07-21T03:05:31;93480.09;;;22.10;64.62
59289;BME280;45056;47.602;9.886;2022-07-21T03:08:00;93480.84;;;22.11;64.74
59289;BME280;45056;47.602;9.886;2022-07-21T03:10:28;93476.56;;;22.10;64.54
59289;BME280;45056;47.602;9.886;2022-07-21T03:12:56;93475.31;;;22.11;64.49
59289;BME280;45056;47.602;9.886;2022-07-21T03:15:25;93477.84;;;22.09;64.55
59289;BME280;45056;47.602;9.886;2022-07-21T03:17:53;93475.06;;;22.09;64.52
59289;BME280;45056;47.602;9.886;2022-07-21T03:20:24;93471.56;;;22.08;64.44
59289;BME280;45056;47.602;9.886;2022-07-21T03:22:52;93475.56;;;22.07;64.48
59289;BME280;45056;47.602;9.886;2022-07-21T03:25:21;93471.78;;;22.04;64.53
59289;BME280;45056;47.602;9.886;2022-07-21T03:27:50;93478.84;;;22.05;64.53
59289;BME280;45056;47.602;9.886;2022-07-21T03:30:18;93473.81;;;22.04;64.55
59289;BME280;45056;47.602;9.886;2022-07-21T03:32:49;93482.13;;;22.04;64.53
59289;BME280;45056;47.602;9.886;2022-07-21T03:37:50;93478.09;;;21.99;64.58
59289;BME280;45056;47.602;9.886;2022-07-21T03:40:22;93496.22;;;21.95;64.67
59289;BME280;45056;47.602;9.886;2022-07-21T03:42:52;93492.94;;;21.90;64.83
59289;BME280;45056;47.602;9.886;2022-07-21T03:45:24;93499.00;;;21.89;64.85
59289;BME280;45056;47.602;9.886;2022-07-21T03:47:53;93496.97;;;21.89;64.94
59289;BME280;45056;47.602;9.886;2022-07-21T03:50:21;93497.72;;;21.90;64.85
59289;BME280;45056;47.602;9.886;2022-07-21T03:52:50;93500.50;;;21.90;64.77
59289;BME280;45056;47.602;9.886;2022-07-21T03:55:18;93498.22;;;21.88;64.98
59289;BME280;45056;47.602;9.886;2022-07-21T03:57:49;93505.78;;;21.88;64.69
59289;BME280;45056;47.602;9.886;2022-07-21T04:00:21;93506.53;;;21.88;64.79
59289;BME280;45056;47.602;9.886;2022-07-21T04:02:51;93501.75;;;21.89;64.58
59289;BME280;45056;47.602;9.886;2022-07-21T04:05:19;93508.81;;;21.90;64.65
59289;BME280;45056;47.602;9.886;2022-07-21T04:07:51;93511.06;;;21.91;64.45
59289;BME280;45056;47.602;9.886;2022-07-21T04:10:21;93503.28;;;21.90;64.53
59289;BME280;45056;47.602;9.886;2022-07-21T04:12:54;93498.47;;;21.90;64.55
59289;BME280;45056;47.602;9.886;2022-07-21T04:15:23;93503.53;;;21.92;64.76
59289;BME280;45056;47.602;9.886;2022-07-21T04:17:52;93496.72;;;21.93;64.74
59289;BME280;45056;47.602;9.886;2022-07-21T04:20:20;93503.25;;;21.96;64.80
59289;BME280;45056;47.602;9.886;2022-07-21T04:22:51;93504.78;;;21.97;64.66
59289;BME280;45056;47.602;9.886;2022-07-21T04:25:20;93508.31;;;21.97;64.62
59289;BME280;45056;47.602;9.886;2022-07-21T04:27:50;93514.59;;;21.98;64.53
59289;BME280;45056;47.602;9.886;2022-07-21T04:30:21;93513.34;;;21.99;64.60
59289;BME280;45056;47.602;9.886;2022-07-21T04:32:51;93515.38;;;21.98;64.60
59289;BME280;45056;47.602;9.886;2022-07-21T04:35:20;93511.81;;;21.98;64.55
59289;BME280;45056;47.602;9.886;2022-07-21T04:37:48;93513.59;;;21.95;64.73
59289;BME280;45056;47.602;9.886;2022-07-21T04:40:18;93519.13;;;21.95;64.57
59289;BME280;45056;47.602;9.886;2022-07-21T04:42:46;93525.41;;;21.96;64.63
59289;BME280;45056;47.602;9.886;2022-07-21T04:45:15;93519.88;;;21.96;64.71
59289;BME280;45056;47.602;9.886;2022-07-21T04:47:46;93524.69;;;21.95;64.71
59289;BME280;45056;47.602;9.886;2022-07-21T04:50:16;93523.91;;;21.95;64.95
59289;BME280;45056;47.602;9.886;2022-07-21T04:52:47;93525.69;;;21.92;65.01
59289;BME280;45056;47.602;9.886;2022-07-21T04:55:16;93528.19;;;21.90;64.94
59289;BME280;45056;47.602;9.886;2022-07-21T04:57:48;93528.94;;;21.90;64.64
59289;BME280;45056;47.602;9.886;2022-07-21T05:00:20;93524.44;;;21.93;64.31
59289;BME280;45056;47.602;9.886;2022-07-21T05:02:51;93533.00;;;21.95;64.14
59289;BME280;45056;47.602;9.886;2022-07-21T05:05:21;93531.72;;;21.96;63.85
59289;BME280;45056;47.602;9.886;2022-07-21T05:07:49;93523.41;;;21.96;63.54
59289;BME280;45056;47.602;9.886;2022-07-21T05:10:19;93526.44;;;21.98;63.40
59289;BME280;45056;47.602;9.886;2022-07-21T05:12:47;93534.25;;;22.00;63.34
59289;BME280;45056;47.602;9.886;2022-07-21T05:15:15;93533.25;;;22.03;63.40
59289;BME280;45056;47.602;9.886;2022-07-21T05:17:44;93528.22;;;22.07;63.13
59289;BME280;45056;47.602;9.886;2022-07-21T05:20:12;93530.72;;;22.11;63.23
59289;BME280;45056;47.602;9.886;2022-07-21T05:22:40;93528.19;;;22.13;63.22
59289;BME280;45056;47.602;9.886;2022-07-21T05:25:09;93523.44;;;22.13;63.41
59289;BME280;45056;47.602;9.886;2022-07-21T05:27:38;93531.22;;;22.15;63.43
59289;BME280;45056;47.602;9.886;2022-07-21T05:30:08;93525.69;;;22.15;63.45
59289;BME280;45056;47.602;9.886;2022-07-21T05:32:37;93528.97;;;22.13;63.25
59289;BME280;45056;47.602;9.886;2022-07-21T05:35:06;93533.75;;;22.13;63.26
59289;BME280;45056;47.602;9.886;2022-07-21T05:37:38;93534.50;;;22.13;63.30
59289;BME280;45056;47.602;9.886;2022-07-21T05:40:09;93532.47;;;22.14;63.37
59289;BME280;45056;47.602;9.886;2022-07-21T05:42:39;93530.97;;;22.13;63.28
59289;BME280;45056;47.602;9.886;2022-07-21T05:45:08;93524.69;;;22.12;63.38
59289;BME280;45056;47.602;9.886;2022-07-21T05:47:37;93521.91;;;22.12;63.14
59289;BME280;45056;47.602;9.886;2022-07-21T05:50:07;93530.22;;;22.12;62.91
59289;BME280;45056;47.602;9.886;2022-07-21T05:52:36;93533.75;;;22.13;62.90
59289;BME280;45056;47.602;9.886;2022-07-21T05:55:05;93535.78;;;22.12;62.83
59289;BME280;45056;47.602;9.886;2022-07-21T05:57:34;93541.56;;;22.14;62.62
59289;BME280;45056;47.602;9.886;2022-07-21T06:00:05;93538.78;;;22.14;62.70
59289;BME280;45056;47.602;9.886;2022-07-21T06:02:34;93540.31;;;22.15;62.55
59289;BME280;45056;47.602;9.886;2022-07-21T06:05:02;93543.84;;;22.16;62.87
59289;BME280;45056;47.602;9.886;2022-07-21T06:07:33;93544.59;;;22.16;62.61
59289;BME280;45056;47.602;9.886;2022-07-21T06:10:01;93545.34;;;22.17;62.67
59289;BME280;45056;47.602;9.886;2022-07-21T06:12:29;93546.88;;;22.18;62.74
59289;BME280;45056;47.602;9.886;2022-07-21T06:14:57;93550.38;;;22.18;62.49
59289;BME280;45056;47.602;9.886;2022-07-21T06:17:27;93550.91;;;22.17;62.54
59289;BME280;45056;47.602;9.886;2022-07-21T06:19:57;93550.91;;;22.17;62.35
59289;BME280;45056;47.602;9.886;2022-07-21T06:22:25;93552.41;;;22.18;62.51
59289;BME280;45056;47.602;9.886;2022-07-21T06:24:53;93558.69;;;22.18;62.56
59289;BME280;45056;47.602;9.886;2022-07-21T06:27:21;93550.91;;;22.17;62.59
59289;BME280;45056;47.602;9.886;2022-07-21T06:29:50;93556.44;;;22.17;62.42
59289;BME280;45056;47.602;9.886;2022-07-21T06:32:18;93562.22;;;22.19;62.44
59289;BME280;45056;47.602;9.886;2022-07-21T06:34:48;93563.22;;;22.22;62.48
59289;BME280;45056;47.602;9.886;2022-07-21T06:37:16;93566.25;;;22.24;62.49
59289;BME280;45056;47.602;9.886;2022-07-21T06:39:44;93560.97;;;22.26;62.33
59289;BME280;45056;47.602;9.886;2022-07-21T06:42:12;93558.97;;;22.26;62.44
59289;BME280;45056;47.602;9.886;2022-07-21T06:44:40;93567.53;;;22.28;62.45
59289;BME280;45056;47.602;9.886;2022-07-21T06:47:08;93560.72;;;22.29;62.71
59289;BME280;45056;47.602;9.886;2022-07-21T06:49:36;93565.00;;;22.30;62.66
59289;BME280;45056;47.602;9.886;2022-07-21T06:52:05;93567.00;;;22.30;62.57
59289;BME280;45056;47.602;9.886;2022-07-21T06:54:33;93565.50;;;22.29;62.72
59289;BME280;45056;47.602;9.886;2022-07-21T06:57:01;93569.03;;;22.29;62.64
59289;BME280;45056;47.602;9.886;2022-07-21T06:59:30;93568.25;;;22.29;62.80
59289;BME280;45056;47.602;9.886;2022-07-21T07:01:58;93572.28;;;22.28;62.75
59289;BME280;45056;47.602;9.886;2022-07-21T07:04:26;93570.03;;;22.26;62.66
59289;BME280;45056;47.602;9.886;2022-07-21T07:06:54;93565.25;;;22.27;62.52
59289;BME280;45056;47.602;9.886;2022-07-21T07:09:24;93581.38;;;22.28;62.55
59289;BME280;45056;47.602;9.886;2022-07-21T07:11:52;93581.38;;;22.28;62.46
59289;BME280;45056;47.602;9.886;2022-07-21T07:14:21;93582.91;;;22.29;62.38
59289;BME280;45056;47.602;9.886;2022-07-21T07:16:49;93583.38;;;22.28;62.47
59289;BME280;45056;47.602;9.886;2022-07-21T07:19:18;93581.13;;;22.26;62.42
59289;BME280;45056;47.602;9.886;2022-07-21T07:21:46;93593.22;;;22.29;62.58
59289;BME280;45056;47.602;9.886;2022-07-21T07:24:14;93603.31;;;22.32;62.45
59289;BME280;45056;47.602;9.886;2022-07-21T07:26:43;93595.50;;;22.30;62.31
59289;BME280;45056;47.602;9.886;2022-07-21T07:29:12;93604.28;;;22.29;62.24
59289;BME280;45056;47.602;9.886;2022-07-21T07:31:41;93598.50;;;22.27;62.29
59289;BME280;45056;47.602;9.886;2022-07-21T07:34:09;93606.06;;;22.26;62.30
59289;BME280;45056;47.602;9.886;2022-07-21T07:36:37;93596.25;;;22.25;62.23
59289;BME280;45056;47.602;9.886;2022-07-21T07:39:05;93596.25;;;22.25;62.30
59289;BME280;45056;47.602;9.886;2022-07-21T07:41:33;93601.78;;;22.25;62.20
59289;BME280;45056;47.602;9.886;2022-07-21T07:44:03;93591.44;;;22.26;62.25
59289;BME280;45056;47.602;9.886;2022-07-21T07:46:32;93598.50;;;22.27;62.26
59289;BME280;45056;47.602;9.886;2022-07-21T07:49:00;93595.25;;;22.28;62.27
59289;BME280;45056;47.602;9.886;2022-07-21T07:51:28;93587.41;;;22.27;62.13
59289;BME280;45056;47.602;9.886;2022-07-21T07:53:56;93593.72;;;22.27;61.93
59289;BME280;45056;47.602;9.886;2022-07-21T07:56:24;93593.50;;;22.31;61.86
59289;BME280;45056;47.602;9.886;2022-07-21T07:58:52;93598.75;;;22.34;61.77
59289;BME280;45056;47.602;9.886;2022-07-21T08:01:21;93597.00;;;22.37;61.61
59289;BME280;45056;47.602;9.886;2022-07-21T08:03:50;93599.78;;;22.37;61.50
59289;BME280;45056;47.602;9.886;2022-07-21T08:06:18;93598.53;;;22.38;61.18
59289;BME280;45056;47.602;9.886;2022-07-21T08:08:46;93592.97;;;22.38;61.04
59289;BME280;45056;47.602;9.886;2022-07-21T08:11:15;93604.06;;;22.38;60.83
59289;BME280;45056;47.602;9.886;2022-07-21T08:13:43;93600.78;;;22.40;60.80
59289;BME280;45056;47.602;9.886;2022-07-21T08:16:11;93603.56;;;22.40;60.85
59289;BME280;45056;47.602;9.886;2022-07-21T08:18:44;93605.84;;;22.41;61.01
59289;BME280;45056;47.602;9.886;2022-07-21T08:21:12;93599.03;;;22.42;60.92
59289;BME280;45056;47.602;9.886;2022-07-21T08:23:40;93608.84;;;22.43;60.96
59289;BME280;45056;47.602;9.886;2022-07-21T08:26:08;93606.81;;;22.44;60.99
59289;BME280;45056;47.602;9.886;2022-07-21T08:28:37;93606.81;;;22.44;60.81
59289;BME280;45056;47.602;9.886;2022-07-21T08:31:05;93604.34;;;22.46;60.97
59289;BME280;45056;47.602;9.886;2022-07-21T08:33:33;93604.63;;;22.48;60.70
59289;BME280;45056;47.602;9.886;2022-07-21T08:36:02;93607.13;;;22.52;60.50
59289;BME280;45056;47.602;9.886;2022-07-21T08:38:31;93601.09;;;22.53;60.35
59289;BME280;45056;47.602;9.886;2022-07-21T08:40:59;93608.38;;;22.56;60.18
59289;BME280;45056;47.602;9.886;2022-07-21T08:43:28;93610.41;;;22.61;60.08
59289;BME280;45056;47.602;9.886;2022-07-21T08:45:58;93610.66;;;22.63;59.47
59289;BME280;45056;47.602;9.886;2022-07-21T08:48:27;93609.63;;;22.67;59.50
59289;BME280;45056;47.602;9.886;2022-07-21T08:50:56;93617.97;;;22.67;59.38
59289;BME280;45056;47.602;9.886;2022-07-21T08:53:26;93611.91;;;22.68;59.57
59289;BME280;45056;47.602;9.886;2022-07-21T08:55:55;93605.84;;;22.70;59.61
59289;BME280;45056;47.602;9.886;2022-07-21T08:58:23;93612.41;;;22.72;59.46
59289;BME280;45056;47.602;9.886;2022-07-21T09:00:51;93617.19;;;22.77;59.50
59289;BME280;45056;47.602;9.886;2022-07-21T09:03:23;93617.94;;;22.84;58.70
59289;BME280;45056;47.602;9.886;2022-07-21T09:06:06;93610.88;;;22.88;57.87
59289;BME280;45056;47.602;9.886;2022-07-21T09:08:41;93613.66;;;22.94;57.96
59289;BME280;45056;47.602;9.886;2022-07-21T09:11:14;93622.44;;;23.04;57.97
59289;BME280;45056;47.602;9.886;2022-07-21T09:13:47;93611.59;;;23.12;57.26
59289;BME280;45056;47.602;9.886;2022-07-21T09:16:35;93611.59;;;23.17;56.45
59289;BME280;45056;47.602;9.886;2022-07-21T09:19:06;93616.66;;;23.25;56.45
59289;BME280;45056;47.602;9.886;2022-07-21T09:21:42;93622.19;;;23.30;56.02
59289;BME280;45056;47.602;9.886;2022-07-21T09:24:18;93615.38;;;23.31;55.65
59289;BME280;45056;47.602;9.886;2022-07-21T09:27:07;93612.59;;;23.31;55.26
59289;BME280;45056;47.602;9.886;2022-07-21T09:29:42;93609.81;;;23.31;54.73
59289;BME280;45056;47.602;9.886;2022-07-21T09:32:21;93614.59;;;23.31;54.79
59289;BME280;45056;47.602;9.886;2022-07-21T09:35:00;93617.91;;;23.29;54.87
59289;BME280;45056;47.602;9.886;2022-07-21T09:37:31;93617.66;;;23.27;54.93
59289;BME280;45056;47.602;9.886;2022-07-21T09:40:06;93613.88;;;23.25;54.99
59289;BME280;45056;47.602;9.886;2022-07-21T09:42:39;93610.81;;;23.23;55.36
59289;BME280;45056;47.602;9.886;2022-07-21T09:45:10;93608.31;;;23.25;55.41
59289;BME280;45056;47.602;9.886;2022-07-21T09:47:41;93612.34;;;23.29;55.12
59289;BME280;45056;47.602;9.886;2022-07-21T09:50:13;93612.59;;;23.31;54.85
59289;BME280;45056;47.602;9.886;2022-07-21T09:52:45;93614.34;;;23.34;54.86
59289;BME280;45056;47.602;9.886;2022-07-21T09:55:16;93613.34;;;23.38;54.76
59289;BME280;45056;47.602;9.886;2022-07-21T09:57:45;93613.06;;;23.41;54.45
59289;BME280;45056;47.602;9.886;2022-07-21T10:00:16;93603.72;;;23.44;54.05
59289;BME280;45056;47.602;9.886;2022-07-21T10:02:46;93604.97;;;23.49;54.16
59289;BME280;45056;47.602;9.886;2022-07-21T10:05:17;93593.34;;;23.56;53.80
59289;BME280;45056;47.602;9.886;2022-07-21T10:07:48;93595.81;;;23.66;53.70
59289;BME280;45056;47.602;9.886;2022-07-21T10:10:18;93594.00;;;23.74;52.20
59289;BME280;45056;47.602;9.886;2022-07-21T10:12:47;93592.22;;;23.76;50.74
59289;BME280;45056;47.602;9.886;2022-07-21T10:15:16;93601.03;;;23.81;49.96
59289;BME280;45056;47.602;9.886;2022-07-21T10:17:49;93594.94;;;23.88;49.27
59289;BME280;45056;47.602;9.886;2022-07-21T10:20:26;93591.84;;;23.97;49.11
59289;BME280;45056;47.602;9.886;2022-07-21T10:23:06;93591.06;;;24.08;49.70
59289;BME280;45056;47.602;9.886;2022-07-21T10:25:43;93585.44;;;24.19;49.44
59289;BME280;45056;47.602;9.886;2022-07-21T10:28:17;93583.63;;;24.28;49.78
59289;BME280;45056;47.602;9.886;2022-07-21T10:30:50;93591.41;;;24.35;49.74
59289;BME280;45056;47.602;9.886;2022-07-21T10:33:50;93590.59;;;24.40;49.72
59289;BME280;45056;47.602;9.886;2022-07-21T10:36:41;93589.06;;;24.45;49.33
59289;BME280;45056;47.602;9.886;2022-07-21T10:39:23;93588.25;;;24.50;49.52
59289;BME280;45056;47.602;9.886;2022-07-21T10:41:56;93588.22;;;24.56;49.75
59289;BME280;45056;47.602;9.886;2022-07-21T10:44:42;93592.72;;;24.59;49.35
59289;BME280;45056;47.602;9.886;2022-07-21T10:47:17;93595.75;;;24.61;49.25
59289;BME280;45056;47.602;9.886;2022-07-21T10:49:53;93597.22;;;24.68;49.52
59289;BME280;45056;47.602;9.886;2022-07-21T10:55:47;93589.34;;;24.72;50.15
59289;BME280;45056;47.602;9.886;2022-07-21T10:58:28;93586.31;;;24.70;50.30
59289;BME280;45056;47.602;9.886;2022-07-21T11:00:58;93583.59;;;24.64;49.98
59289;BME280;45056;47.602;9.886;2022-07-21T11:03:30;93592.50;;;24.57;50.70
59289;BME280;45056;47.602;9.886;2022-07-21T11:06:14;93593.53;;;24.54;51.29
59289;BME280;45056;47.602;9.886;2022-07-21T11:08:47;93590.22;;;24.55;51.34
59289;BME280;45056;47.602;9.886;2022-07-21T11:11:18;93584.66;;;24.55;51.22
59289;BME280;45056;47.602;9.886;2022-07-21T11:14:02;93583.91;;;24.55;51.51
59289;BME280;45056;47.602;9.886;2022-07-21T11:16:56;93582.13;;;24.57;51.47
59289;BME280;45056;47.602;9.886;2022-07-21T11:19:34;93580.38;;;24.54;51.22
59289;BME280;45056;47.602;9.886;2022-07-21T11:22:10;93569.78;;;24.53;51.47
59289;BME280;45056;47.602;9.886;2022-07-21T11:24:44;93572.56;;;24.53;51.69
59289;BME280;45056;47.602;9.886;2022-07-21T11:27:16;93572.25;;;24.56;51.74
59289;BME280;45056;47.602;9.886;2022-07-21T11:29:50;93573.78;;;24.57;51.63
59289;BME280;45056;47.602;9.886;2022-07-21T11:32:21;93571.22;;;24.59;51.67
59289;BME280;45056;47.602;9.886;2022-07-21T11:34:52;93561.84;;;24.62;51.80
59289;BME280;45056;47.602;9.886;2022-07-21T11:37:31;93561.78;;;24.68;50.72
59289;BME280;45056;47.602;9.886;2022-07-21T11:40:11;93564.03;;;24.75;49.89
59289;BME280;45056;47.602;9.886;2022-07-21T11:42:43;93563.72;;;24.85;50.53
59289;BME280;45056;47.602;9.886;2022-07-21T11:45:14;93561.31;;;24.95;50.22
59289;BME280;45056;47.602;9.886;2022-07-21T11:47:43;93551.13;;;25.03;50.58
59289;BME280;45056;47.602;9.886;2022-07-21T11:50:16;93548.50;;;25.11;50.44
59289;BME280;45056;47.602;9.886;2022-07-21T11:52:45;93550.50;;;25.16;49.92
59289;BME280;45056;47.602;9.886;2022-07-21T11:55:13;93548.16;;;25.20;50.04
59289;BME280;45056;47.602;9.886;2022-07-21T11:57:43;93549.13;;;25.23;49.86
59289;BME280;45056;47.602;9.886;2022-07-21T12:00:15;93547.28;;;25.31;49.86
59289;BME280;45056;47.602;9.886;2022-07-21T12:02:45;93544.06;;;25.46;48.13
59289;BME280;45056;47.602;9.886;2022-07-21T12:05:16;93545.00;;;25.54;45.55
59289;BME280;45056;47.602;9.886;2022-07-21T12:07:46;93545.97;;;25.57;44.13
59289;BME280;45056;47.602;9.886;2022-07-21T12:10:23;93545.66;;;25.60;43.82
59289;BME280;45056;47.602;9.886;2022-07-21T12:12:58;93540.56;;;25.64;44.14
59289;BME280;45056;47.602;9.886;2022-07-21T12:15:30;93546.50;;;25.74;44.80
59289;BME280;45056;47.602;9.886;2022-07-21T12:18:03;93539.03;;;25.83;44.81
59289;BME280;45056;47.602;9.886;2022-07-21T12:20:34;93527.75;;;25.94;45.09
59289;BME280;45056;47.602;9.886;2022-07-21T12:23:18;93537.97;;;26.05;44.26
59289;BME280;45056;47.602;9.886;2022-07-21T12:25:49;93536.72;;;26.06;43.10
59289;BME280;45056;47.602;9.886;2022-07-21T12:28:17;93543.03;;;26.06;42.20
59289;BME280;45056;47.602;9.886;2022-07-21T12:30:50;93538.22;;;26.07;41.72
59289;BME280;45056;47.602;9.886;2022-07-21T12:33:26;93537.44;;;26.06;40.72
59289;BME280;45056;47.602;9.886;2022-07-21T12:36:02;93533.06;;;26.11;41.10
59289;BME280;45056;47.602;9.886;2022-07-21T12:38:35;93533.16;;;26.25;42.44
59289;BME280;45056;47.602;9.886;2022-07-21T12:41:05;93537.78;;;26.35;42.42
59289;BME280;45056;47.602;9.886;2022-07-21T12:43:35;93535.22;;;26.38;41.71
59289;BME280;45056;47.602;9.886;2022-07-21T12:46:10;93532.22;;;26.35;41.48
59289;BME280;45056;47.602;9.886;2022-07-21T12:48:41;93534.03;;;26.33;41.50
59289;BME280;45056;47.602;9.886;2022-07-21T12:51:12;93531.78;;;26.31;41.45
59289;BME280;45056;47.602;9.886;2022-07-21T12:53:45;93528.44;;;26.33;41.33
59289;BME280;45056;47.602;9.886;2022-07-21T12:56:17;93524.69;;;26.30;41.65
59289;BME280;45056;47.602;9.886;2022-07-21T12:58:47;93522.88;;;26.33;42.26
59289;BME280;45056;47.602;9.886;2022-07-21T13:01:19;93532.22;;;26.35;41.21
59289;BME280;45056;47.602;9.886;2022-07-21T13:03:48;93528.81;;;26.43;40.90
59289;BME280;45056;47.602;9.886;2022-07-21T13:06:17;93531.41;;;26.54;41.57
59289;BME280;45056;47.602;9.886;2022-07-21T13:08:47;93529.50;;;26.62;41.16
59289;BME280;45056;47.602;9.886;2022-07-21T13:11:19;93521.47;;;26.72;40.74
59289;BME280;45056;47.602;9.886;2022-07-21T13:13:50;93534.44;;;26.83;39.99
59289;BME280;45056;47.602;9.886;2022-07-21T13:16:20;93530.75;;;26.94;39.42
59289;BME280;45056;47.602;9.886;2022-07-21T13:18:48;93535.38;;;27.05;39.04
59289;BME280;45056;47.602;9.886;2022-07-21T13:21:16;93526.56;;;27.14;38.04
59289;BME280;45056;47.602;9.886;2022-07-21T13:23:44;93518.84;;;27.20;36.58